Pocatello, ID (83201)

12:21 AM MST on January 24, 2017 (GMT -0700)
Bonneville Park | | Change Station
Active Advisory: Winter Storm Warning

Elev 4606 ft 42.87 °N, 112.43 °W | Updated 21 seconds ago

Snow
Snow
25.5 °F
Feels Like 26 °F
N
0.0
Wind Variable Wind from East

Today
High -- | Low -- °F
--% Chance of Precip.
Yesterday
High -- | Low -- °F
Precip. -- in
Pressure 29.61 in
Visibility 2.0 miles
Clouds Few 700 ft
Scattered Clouds 1400 ft
Overcast 1900 ft
Windchill 26 °F
Dew Point 23 °F
Humidity 91%
Rainfall 0.00 in
Snow Depth Not available.
7:51 AM 5:32 PM
Waning Crescent, 13% visible
SPECI KPIH 240719Z AUTO 23016KT 2SM -SN BR FEW007 SCT014 OVC019 M03/M04 A2961 RMK AO2 P0001 T10331044
Pressure 29.61 in
Visibility 2.0 miles
Clouds Few 700 ft
Scattered Clouds 1400 ft
Overcast 1900 ft
Windchill 26 °F
Dew Point 23 °F
Humidity 91%
Rainfall 0.00 in
Snow Depth Not available.
7:51 AM 5:32 PM
Waning Crescent, 13% visible
SPECI KPIH 240719Z AUTO 23016KT 2SM -SN BR FEW007 SCT014 OVC019 M03/M04 A2961 RMK AO2 P0001 T10331044

Get Your Daily Forecast Email!

Thanks for signing up!

Be on the lookout for a verification email in your inbox.

You'll start receiving the daily forecast at 8 AM.

×

10-Day Weather Forecast

Almanac

Astronomy

Jan. 24, 2017 Rise Set
Actual Time
Civil Twilight
Nautical Twilight
Astronomical Twilight
Moon
Length of Visible Light
Length of Day
Tomorrow will be .
, % of the Moon is Illuminated

Today's Extremes

State Highs State Lows

Community

WunderPhotos

Upload Photos

1,962,540 photos uploaded!

WunderBlog® & News

Nearby

Air Quality

  Air Quality AQ Index Pollutant
Not available.

Snow Depth

Station Depth Elevation

Earthquake Activity

City Distance Mag. Time & Date
Minimum magnitude displayed is 2.5.

Coastal Water Temperatures

Place Temperature

Stations

Nearby Weather Stations

Station Location Temp. Windchill Dew Point Humidity Wind Precip. Elev Updated Type
                   

Watches & Warnings

Winter Storm Warning
Issued: 9:04 PM MST Jan. 23, 2017 – National Weather Service

... Winter Storm Warning remains in effect until 6 am MST
Tuesday...

* impacts... moderate snowfall with blowing and drifting snow over
roadways.

* Timing... through 6 am Tuesday. The heaviest snowfall will
occur this evening through shortly after midnight.

* Snow accumulations... 6 to 8 inches of new snow is forecast
through the morning. Highest amounts should fall along the
Interstate 15 and Interstate 86 corridors, and in the benches
of Pocatello.

* Confidence... moderate.

* Locations... Pocatello... Chubbuck... Fort Hall... Blackfoot...
Aberdeen... American Falls.

Precautionary/preparedness actions...

A Winter Storm Warning for heavy snow means severe winter weather
conditions are expected or occurring. Significant amounts of snow
are forecast that will make travel dangerous. Only travel in an
emergency. If you must travel, keep an extra flashlight, food and
water in your vehicle in case of an emergency.